Aérodrome :
LOGIN :

S'inscrire | Disclaimer

   EN    FR    IT 

 










Légende :    VFR   VFR Marginal   IFR   IFR Intensif   IFR Très Intensif
Visi : 
Plafond : 
>= 8 km
>= 3000ft
5 à 8 km
1000 à 3000 ft
1500m à 5 km
500 à 1000 ft
800 à 1500m
200 à 500 ft
< 800m
< 200 ft
Symboles :   Orages  Brouillard  Fortes neiges  Fortes précipitations  Vent > 20 kt
SIGMETs :   Divers  Orages  Givrage  Turbulence  Onde Orograph.  Cendres Volcan.






- Altitude de l'aérodrome : 257 ft
- Code IATA : MAN


EGCC - Manchester

DERNIER METAR :
  • 081050Z AUTO VRB03KT 9999 BKN042/// //////CB 06/02 Q1023 TEMPO RA

METARs EXPIRÉS :
  • 081020Z AUTO VRB03KT 9999 BKN042/// //////TCU 05/02 Q1023
  • 080950Z AUTO VRB02KT 9999 -RA BKN029 OVC039 04/02 Q1024
  • 080920Z AUTO VRB02KT 9999 OVC032/// //////TCU 04/02 Q1023
  • 080850Z AUTO 18004KT 140V210 9000 SCT037/// BKN045/// //////TCU 03/02 Q1024
  • 080820Z AUTO VRB01KT 7000 -RA BKN033 03/02 Q1024 TEMPO RA

TAF TAF EGCC
Valide du 08 à 06h jusqu'au 09 à 12h UTC


080456Z 0806/0912 25005KT 9999 SCT016
PROB40
TEMPO 0806/0807 7000
TEMPO 0807/0818 7000 RA BKN012
TEMPO 0819/0905 8000
BECMG 0905/0908 BKN014
PROB30
TEMPO 0905/0912 7000 -RA BKN006
ATIS : +44 161 499 2324



MET'MAP, la Météo Aéronautique d'un coup d'oeil ! - Copyright ORBIFLY Décembre 2007 - Disclaimer

ORBIFLY MET'MAP TEAM :

Programmation & Développement : Alexandra Zaïnal
Sur une idée originale de : Baudouin d'Aumeries
Assistance à la programmation : Marc-Olivier Méhu
Soutien technique & logistique : Manuel Goepfert

Contact : metmap@orbifly.com




SOURCES & CREDITS :

   NOAA